createdAt,value
2022-10-26T00:00:46.603Z,10.60
2022-10-26T00:01:46.442Z,10.60
2022-10-26T00:02:47.513Z,10.60
2022-10-26T00:03:46.267Z,10.58
2022-10-26T00:04:47.051Z,10.57
2022-10-26T00:05:46.271Z,10.55
2022-10-26T00:06:47.034Z,10.55
2022-10-26T00:07:46.196Z,10.54
2022-10-26T00:08:46.196Z,10.52
2022-10-26T00:09:46.182Z,10.51
2022-10-26T00:10:46.310Z,10.49
2022-10-26T00:11:46.239Z,10.51
2022-10-26T00:12:46.555Z,10.51
2022-10-26T00:13:46.294Z,10.51
2022-10-26T00:14:46.329Z,10.51
2022-10-26T00:15:46.086Z,10.51
2022-10-26T00:16:46.314Z,10.52
2022-10-26T00:17:46.279Z,10.51
2022-10-26T00:18:46.068Z,10.51
2022-10-26T00:19:46.099Z,10.51
2022-10-26T00:20:46.157Z,10.51
2022-10-26T00:21:46.220Z,10.47
2022-10-26T00:22:46.289Z,10.47
2022-10-26T00:23:46.354Z,10.47
2022-10-26T00:24:46.427Z,10.44
2022-10-26T00:25:45.940Z,10.44
2022-10-26T00:26:47.399Z,10.39
2022-10-26T00:27:46.177Z,10.38
2022-10-26T00:28:46.060Z,10.42
2022-10-26T00:29:46.088Z,10.39
2022-10-26T00:30:45.908Z,10.42
2022-10-26T00:31:47.349Z,10.43
2022-10-26T00:32:45.870Z,10.39
2022-10-26T00:33:45.908Z,10.38
2022-10-26T00:34:46.316Z,10.38
2022-10-26T00:35:46.449Z,10.38
2022-10-26T00:36:46.459Z,10.36
2022-10-26T00:37:46.012Z,10.35
2022-10-26T00:38:46.482Z,10.35
2022-10-26T00:39:46.533Z,10.34
2022-10-26T00:40:46.606Z,10.35
2022-10-26T00:41:46.651Z,10.35
2022-10-26T00:42:46.932Z,10.34
2022-10-26T00:43:46.533Z,10.35
2022-10-26T00:44:46.738Z,10.36
2022-10-26T00:45:46.772Z,10.36
2022-10-26T00:46:46.766Z,10.36
2022-10-26T00:47:46.663Z,10.35
2022-10-26T00:48:46.578Z,10.34
2022-10-26T00:49:45.664Z,10.34
2022-10-26T00:50:45.651Z,10.34
2022-10-26T00:51:47.066Z,10.32
2022-10-26T00:52:47.103Z,10.31
2022-10-26T00:53:46.243Z,10.31
2022-10-26T00:54:46.501Z,10.28
2022-10-26T00:55:46.474Z,10.28
2022-10-26T00:56:46.315Z,10.28
2022-10-26T00:57:46.724Z,10.26
2022-10-26T00:58:45.543Z,10.26
2022-10-26T00:59:46.176Z,10.26
2022-10-26T01:00:45.525Z,10.24
2022-10-26T01:01:45.588Z,10.20
2022-10-26T01:02:45.623Z,10.18
2022-10-26T01:03:45.805Z,10.16
2022-10-26T01:04:45.649Z,10.16
2022-10-26T01:05:45.654Z,10.16
2022-10-26T01:06:45.702Z,10.16
2022-10-26T01:07:45.452Z,10.14
2022-10-26T01:08:45.798Z,10.16
2022-10-26T01:09:45.829Z,10.14
2022-10-26T01:10:45.874Z,10.09
2022-10-26T01:11:45.372Z,10.10
2022-10-26T01:12:46.339Z,10.10
2022-10-26T01:13:45.357Z,10.11
2022-10-26T01:14:45.459Z,10.10
2022-10-26T01:15:45.415Z,10.07
2022-10-26T01:16:45.459Z,10.06
2022-10-26T01:17:45.571Z,10.06
2022-10-26T01:18:45.542Z,10.06
2022-10-26T01:19:45.565Z,10.07
2022-10-26T01:20:45.630Z,10.04
2022-10-26T01:21:45.632Z,10.04
2022-10-26T01:22:45.377Z,10.01
2022-10-26T01:23:45.728Z,10.02
2022-10-26T01:24:46.378Z,10.02
2022-10-26T01:25:45.761Z,10.02
2022-10-26T01:26:45.382Z,10.01
2022-10-26T01:27:46.029Z,10.02
2022-10-26T01:28:45.983Z,9.99
2022-10-26T01:29:45.918Z,9.95
2022-10-26T01:30:46.074Z,9.95
2022-10-26T01:31:46.014Z,9.92
2022-10-26T01:32:45.964Z,9.92
2022-10-26T01:33:46.105Z,9.92
2022-10-26T01:34:46.217Z,9.92
2022-10-26T01:35:45.063Z,9.93
2022-10-26T01:36:45.056Z,9.93
2022-10-26T01:37:45.068Z,9.95
2022-10-26T01:38:45.038Z,9.96
2022-10-26T01:39:45.167Z,9.93
2022-10-26T01:40:45.201Z,9.92
2022-10-26T01:41:45.248Z,9.92
2022-10-26T01:42:45.137Z,9.95
2022-10-26T01:43:45.367Z,9.92
2022-10-26T01:44:45.394Z,9.92
2022-10-26T01:45:44.991Z,9.92
2022-10-26T01:46:45.456Z,9.91
2022-10-26T01:47:45.705Z,9.93
2022-10-26T01:48:45.547Z,9.93
2022-10-26T01:49:45.607Z,9.93
2022-10-26T01:50:45.652Z,9.92
2022-10-26T01:51:45.693Z,9.89
2022-10-26T01:52:45.733Z,9.86
2022-10-26T01:53:44.896Z,9.83
2022-10-26T01:54:45.818Z,9.83
2022-10-26T01:55:45.134Z,9.81
2022-10-26T01:56:45.673Z,9.81
2022-10-26T01:57:44.824Z,9.78
2022-10-26T01:58:45.996Z,9.77
2022-10-26T01:59:45.762Z,9.75
2022-10-26T02:00:45.801Z,9.75
2022-10-26T02:01:45.794Z,9.75
2022-10-26T02:02:44.864Z,9.75
2022-10-26T02:03:45.151Z,9.75
2022-10-26T02:04:45.287Z,9.77
2022-10-26T02:05:45.022Z,9.74
2022-10-26T02:06:44.676Z,9.75
2022-10-26T02:07:52.052Z,9.74
2022-10-26T02:08:44.628Z,9.71
2022-10-26T02:09:44.657Z,9.71
2022-10-26T02:10:44.588Z,9.71
2022-10-26T02:11:44.600Z,9.73
2022-10-26T02:12:44.607Z,9.70
2022-10-26T02:13:44.656Z,9.71
2022-10-26T02:14:44.527Z,9.70
2022-10-26T02:15:44.524Z,9.71
2022-10-26T02:16:44.525Z,9.68
2022-10-26T02:17:44.516Z,9.68
2022-10-26T02:18:44.585Z,9.67
2022-10-26T02:19:44.477Z,9.68
2022-10-26T02:20:44.453Z,9.65
2022-10-26T02:21:44.436Z,9.65
2022-10-26T02:22:44.464Z,9.65
2022-10-26T02:23:44.416Z,9.65
2022-10-26T02:24:44.399Z,9.63
2022-10-26T02:25:44.466Z,9.63
2022-10-26T02:26:44.455Z,9.65
2022-10-26T02:27:44.451Z,9.65
2022-10-26T02:28:44.458Z,9.67
2022-10-26T02:29:44.453Z,9.67
2022-10-26T02:30:44.453Z,9.63
2022-10-26T02:31:44.313Z,9.63
2022-10-26T02:32:44.303Z,9.62
2022-10-26T02:33:44.347Z,9.59
2022-10-26T02:34:44.463Z,9.59
2022-10-26T02:35:44.271Z,9.56
2022-10-26T02:36:44.249Z,9.53
2022-10-26T02:37:44.241Z,9.53
2022-10-26T02:38:44.458Z,9.56
2022-10-26T02:39:44.209Z,9.55
2022-10-26T02:40:44.198Z,9.56
2022-10-26T02:41:44.182Z,9.58
2022-10-26T02:42:44.167Z,9.58
2022-10-26T02:43:44.173Z,9.58
2022-10-26T02:44:44.159Z,9.56
2022-10-26T02:45:44.131Z,9.55
2022-10-26T02:46:44.111Z,9.56
2022-10-26T02:47:44.128Z,9.58
2022-10-26T02:48:44.103Z,9.58
2022-10-26T02:49:44.089Z,9.58
2022-10-26T02:50:44.093Z,9.58
2022-10-26T02:51:44.097Z,9.59
2022-10-26T02:52:44.054Z,9.60
2022-10-26T02:53:44.138Z,9.62
2022-10-26T02:54:44.024Z,9.60
2022-10-26T02:55:44.158Z,9.62
2022-10-26T02:56:43.987Z,9.60
2022-10-26T02:57:43.991Z,9.59
2022-10-26T02:58:43.981Z,9.59
2022-10-26T02:59:43.954Z,9.58
2022-10-26T03:00:43.947Z,9.60
2022-10-26T03:01:43.973Z,9.59
2022-10-26T03:02:47.587Z,9.62
2022-10-26T03:03:43.916Z,9.60
2022-10-26T03:04:43.884Z,9.59
2022-10-26T03:05:43.872Z,9.62
2022-10-26T03:06:43.875Z,9.58
2022-10-26T03:07:43.866Z,9.59
2022-10-26T03:08:43.846Z,9.60
2022-10-26T03:09:43.817Z,9.62
2022-10-26T03:10:43.802Z,9.62
2022-10-26T03:11:43.797Z,9.60
2022-10-26T03:12:43.783Z,9.62
2022-10-26T03:13:43.794Z,9.62
2022-10-26T03:14:43.753Z,9.62
2022-10-26T03:15:43.738Z,9.60
2022-10-26T03:16:43.759Z,9.60
2022-10-26T03:17:43.714Z,9.65
2022-10-26T03:18:43.716Z,9.63
2022-10-26T03:19:43.683Z,9.60
2022-10-26T03:20:43.674Z,9.56
2022-10-26T03:21:43.663Z,9.58
2022-10-26T03:22:43.640Z,9.56
2022-10-26T03:23:43.645Z,9.58
2022-10-26T03:24:43.621Z,9.56
2022-10-26T03:25:43.612Z,9.56
2022-10-26T03:26:43.595Z,9.56
2022-10-26T03:27:43.582Z,9.55
2022-10-26T03:28:43.581Z,9.55
2022-10-26T03:29:43.552Z,9.56
2022-10-26T03:30:43.547Z,9.53
2022-10-26T03:31:43.530Z,9.53
2022-10-26T03:32:43.520Z,9.55
2022-10-26T03:33:43.535Z,9.56
2022-10-26T03:34:43.505Z,9.55
2022-10-26T03:35:43.487Z,9.56
2022-10-26T03:36:43.469Z,9.52
2022-10-26T03:37:43.449Z,9.50
2022-10-26T03:38:43.447Z,9.45
2022-10-26T03:39:43.430Z,9.45
2022-10-26T03:40:43.432Z,9.45
2022-10-26T03:41:43.470Z,9.42
2022-10-26T03:42:43.386Z,9.41
2022-10-26T03:43:43.458Z,9.40
2022-10-26T03:44:43.377Z,9.37
2022-10-26T03:45:43.350Z,9.35
2022-10-26T03:46:43.347Z,9.37
2022-10-26T03:47:43.336Z,9.37
2022-10-26T03:48:43.316Z,9.35
2022-10-26T03:49:43.306Z,9.35
2022-10-26T03:50:43.304Z,9.35
2022-10-26T03:51:43.276Z,9.37
2022-10-26T03:52:43.266Z,9.35
2022-10-26T03:53:43.256Z,9.37
2022-10-26T03:54:43.256Z,9.37
2022-10-26T03:55:43.227Z,9.37
2022-10-26T03:56:43.226Z,9.35
2022-10-26T03:57:43.195Z,9.34
2022-10-26T03:58:43.183Z,9.32
2022-10-26T03:59:43.170Z,9.31
2022-10-26T04:00:43.434Z,9.31
2022-10-26T04:01:43.444Z,9.34
2022-10-26T04:02:43.134Z,9.32
2022-10-26T04:03:43.144Z,9.32
2022-10-26T04:04:43.184Z,9.34
2022-10-26T04:05:43.086Z,9.34
2022-10-26T04:06:43.151Z,9.32
2022-10-26T04:07:43.065Z,9.34
2022-10-26T04:08:43.054Z,9.31
2022-10-26T04:09:43.039Z,9.31
2022-10-26T04:10:43.022Z,9.32
2022-10-26T04:11:43.004Z,9.34
2022-10-26T04:12:42.991Z,9.37
2022-10-26T04:13:42.979Z,9.35
2022-10-26T04:14:42.972Z,9.32
2022-10-26T04:15:42.951Z,9.30
2022-10-26T04:16:42.940Z,9.30
2022-10-26T04:17:42.933Z,9.30
2022-10-26T04:18:42.918Z,9.27
2022-10-26T04:19:42.911Z,9.26
2022-10-26T04:20:42.883Z,9.24
2022-10-26T04:21:42.880Z,9.22
2022-10-26T04:22:42.859Z,9.24
2022-10-26T04:23:42.861Z,9.22
2022-10-26T04:24:42.839Z,9.22
2022-10-26T04:25:42.834Z,9.20
2022-10-26T04:26:42.849Z,9.19
2022-10-26T04:27:42.796Z,9.20
2022-10-26T04:28:42.786Z,9.20
2022-10-26T04:29:42.779Z,9.19
2022-10-26T04:30:42.768Z,9.20
2022-10-26T04:32:42.735Z,9.20
2022-10-26T04:33:42.776Z,9.17
2022-10-26T04:34:42.712Z,9.19
2022-10-26T04:35:42.687Z,9.22
2022-10-26T04:36:42.677Z,9.23
2022-10-26T04:37:42.654Z,9.22
2022-10-26T04:38:42.675Z,9.19
2022-10-26T04:39:43.314Z,9.20
2022-10-26T04:40:42.636Z,9.20
2022-10-26T04:41:42.608Z,9.19
2022-10-26T04:42:42.605Z,9.19
2022-10-26T04:43:42.603Z,9.20
2022-10-26T04:44:42.665Z,9.22
2022-10-26T04:45:42.553Z,9.19
2022-10-26T04:46:42.573Z,9.20
2022-10-26T04:47:42.524Z,9.22
2022-10-26T04:48:42.515Z,9.20
2022-10-26T04:49:42.498Z,9.19
2022-10-26T04:50:42.484Z,9.13
2022-10-26T04:51:42.473Z,9.13
2022-10-26T04:52:42.460Z,9.12
2022-10-26T04:53:42.455Z,9.15
2022-10-26T04:54:42.485Z,9.16
2022-10-26T04:55:42.415Z,9.16
2022-10-26T04:56:42.484Z,9.15
2022-10-26T04:57:42.393Z,9.15
2022-10-26T04:58:42.381Z,9.16
2022-10-26T04:59:42.371Z,9.13
2022-10-26T05:00:42.391Z,9.12
2022-10-26T05:01:42.427Z,9.06
2022-10-26T05:02:42.341Z,9.06
2022-10-26T05:03:42.306Z,9.04
2022-10-26T05:04:42.323Z,9.04
2022-10-26T05:05:42.317Z,9.06
2022-10-26T05:06:42.277Z,9.08
2022-10-26T05:07:42.983Z,9.15
2022-10-26T05:08:42.251Z,9.23
2022-10-26T05:09:42.252Z,9.26
2022-10-26T05:10:42.420Z,9.27
2022-10-26T05:11:42.220Z,9.37
2022-10-26T05:12:42.208Z,9.35
2022-10-26T05:13:42.178Z,9.34
2022-10-26T05:14:42.169Z,9.34
2022-10-26T05:15:42.203Z,9.40
2022-10-26T05:16:42.141Z,9.37
2022-10-26T05:17:42.139Z,9.37
2022-10-26T05:18:42.135Z,9.38
2022-10-26T05:19:42.110Z,9.38
2022-10-26T05:20:42.097Z,9.41
2022-10-26T05:21:42.161Z,9.45
2022-10-26T05:22:42.065Z,9.52
2022-10-26T05:23:42.047Z,9.44
2022-10-26T05:24:42.056Z,9.34
2022-10-26T05:25:42.015Z,9.27
2022-10-26T05:26:42.016Z,9.23
2022-10-26T05:27:41.995Z,9.20
2022-10-26T05:28:41.991Z,9.16
2022-10-26T05:29:41.974Z,9.13
2022-10-26T05:30:41.955Z,9.12
2022-10-26T05:31:41.961Z,9.10
2022-10-26T05:32:41.925Z,9.08
2022-10-26T05:33:41.914Z,9.06
2022-10-26T05:34:41.896Z,9.03
2022-10-26T05:35:41.885Z,9.03
2022-10-26T05:36:41.873Z,9.04
2022-10-26T05:37:41.855Z,9.04
2022-10-26T05:38:41.873Z,9.06
2022-10-26T05:39:41.857Z,9.04
2022-10-26T05:40:41.828Z,9.03
2022-10-26T05:41:42.770Z,9.04
2022-10-26T05:42:41.812Z,9.04
2022-10-26T05:43:41.784Z,9.01
2022-10-26T05:44:41.788Z,9.01
2022-10-26T05:45:41.760Z,8.98
2022-10-26T05:46:41.803Z,8.96
2022-10-26T05:47:41.791Z,8.96
2022-10-26T05:48:41.753Z,8.94
2022-10-26T05:49:41.800Z,8.93
2022-10-26T05:50:41.688Z,8.94
2022-10-26T05:51:41.681Z,8.98
2022-10-26T05:52:41.662Z,9.01
2022-10-26T05:53:41.642Z,9.00
2022-10-26T05:54:41.643Z,8.98
2022-10-26T05:55:41.617Z,8.98
2022-10-26T05:56:41.636Z,8.97
2022-10-26T05:57:41.588Z,8.97
2022-10-26T05:58:41.600Z,8.94
2022-10-26T05:59:41.579Z,8.96
2022-10-26T06:00:41.555Z,8.91
2022-10-26T06:01:41.733Z,8.93
2022-10-26T06:02:41.598Z,8.91
2022-10-26T06:03:41.518Z,8.94
2022-10-26T06:04:41.516Z,8.94
2022-10-26T06:05:41.558Z,8.97
2022-10-26T06:06:41.486Z,8.97
2022-10-26T06:07:41.459Z,9.00
2022-10-26T06:08:41.455Z,9.03
2022-10-26T06:09:41.446Z,9.03
2022-10-26T06:10:41.444Z,9.03
2022-10-26T06:11:41.441Z,9.04
2022-10-26T06:12:41.397Z,9.01
2022-10-26T06:13:41.489Z,9.00
2022-10-26T06:14:41.384Z,9.00
2022-10-26T06:15:41.364Z,9.06
2022-10-26T06:16:42.226Z,9.01
2022-10-26T06:17:41.343Z,8.96
2022-10-26T06:18:41.325Z,8.93
2022-10-26T06:19:41.313Z,8.91
2022-10-26T06:20:41.310Z,8.91
2022-10-26T06:21:41.276Z,8.88
2022-10-26T06:22:41.329Z,8.86
2022-10-26T06:23:41.293Z,8.86
2022-10-26T06:24:41.277Z,8.86
2022-10-26T06:25:41.220Z,8.88
2022-10-26T06:26:41.220Z,8.93
2022-10-26T06:27:41.207Z,8.96
2022-10-26T06:28:41.204Z,9.01
2022-10-26T06:29:41.181Z,9.08
2022-10-26T06:30:41.161Z,9.16
2022-10-26T06:31:41.172Z,9.23
2022-10-26T06:32:41.172Z,9.27
2022-10-26T06:33:41.121Z,9.27
2022-10-26T06:34:41.113Z,9.31
2022-10-26T06:35:41.092Z,9.34
2022-10-26T06:36:41.108Z,9.31
2022-10-26T06:37:41.081Z,9.26
2022-10-26T06:38:41.381Z,9.23
2022-10-26T06:39:41.049Z,9.23
2022-10-26T06:40:41.060Z,9.22
2022-10-26T06:41:41.309Z,9.24
2022-10-26T06:42:40.998Z,9.22
2022-10-26T06:43:40.991Z,9.23
2022-10-26T06:44:40.979Z,9.24
2022-10-26T06:45:40.959Z,9.24
2022-10-26T06:46:40.953Z,9.31
2022-10-26T06:47:40.941Z,9.35
2022-10-26T06:48:40.924Z,9.38
2022-10-26T06:49:40.916Z,9.42
2022-10-26T06:50:41.133Z,9.48
2022-10-26T06:51:41.267Z,9.52
2022-10-26T06:52:40.871Z,9.52
2022-10-26T06:53:40.859Z,9.53
2022-10-26T06:54:40.855Z,9.53
2022-10-26T06:55:40.825Z,9.50
2022-10-26T06:56:40.965Z,9.49
2022-10-26T06:57:40.807Z,9.52
2022-10-26T06:58:40.798Z,9.52
2022-10-26T06:59:40.775Z,9.53
2022-10-26T07:00:40.786Z,9.55
2022-10-26T07:01:40.949Z,9.55
2022-10-26T07:02:40.759Z,9.56
2022-10-26T07:03:40.752Z,9.56
2022-10-26T07:04:40.724Z,9.56
2022-10-26T07:05:40.695Z,9.58
2022-10-26T07:06:40.717Z,9.58
2022-10-26T07:07:40.663Z,9.59
2022-10-26T07:08:40.664Z,9.60
2022-10-26T07:09:40.644Z,9.62
2022-10-26T07:10:40.632Z,9.60
2022-10-26T07:11:40.633Z,9.60
2022-10-26T07:12:40.611Z,9.62
2022-10-26T07:13:40.601Z,9.60
2022-10-26T07:14:40.582Z,9.60
2022-10-26T07:15:40.609Z,9.63
2022-10-26T07:16:40.552Z,9.67
2022-10-26T07:17:42.702Z,9.67
2022-10-26T07:18:40.559Z,9.67
2022-10-26T07:19:40.523Z,9.68
2022-10-26T07:20:40.512Z,9.68
2022-10-26T07:21:40.510Z,9.71
2022-10-26T07:22:40.474Z,9.71
2022-10-26T07:23:40.500Z,9.74
2022-10-26T07:24:40.481Z,9.75
2022-10-26T07:25:40.725Z,9.75
2022-10-26T07:26:40.440Z,9.75
2022-10-26T07:27:40.411Z,9.75
2022-10-26T07:28:40.401Z,9.75
2022-10-26T07:29:40.717Z,9.80
2022-10-26T07:30:40.378Z,9.81
2022-10-26T07:31:40.409Z,9.85
2022-10-26T07:32:40.387Z,9.86
2022-10-26T07:33:41.598Z,9.89
2022-10-26T07:34:40.426Z,9.93
2022-10-26T07:35:40.355Z,9.98
2022-10-26T07:36:40.299Z,9.99
2022-10-26T07:37:40.293Z,10.02
2022-10-26T07:38:40.271Z,10.07
2022-10-26T07:39:40.268Z,10.10
2022-10-26T07:40:40.247Z,10.11
2022-10-26T07:41:40.245Z,10.16
2022-10-26T07:42:42.004Z,10.17
2022-10-26T07:43:40.201Z,10.22
2022-10-26T07:44:40.193Z,10.26
2022-10-26T07:45:40.198Z,10.28
2022-10-26T07:46:40.325Z,10.32
2022-10-26T07:47:40.166Z,10.35
2022-10-26T07:48:40.197Z,10.36
2022-10-26T07:49:40.161Z,10.39
2022-10-26T07:50:40.113Z,10.44
2022-10-26T07:51:40.112Z,10.47
2022-10-26T07:52:40.097Z,10.51
2022-10-26T07:53:40.082Z,10.52
2022-10-26T07:54:40.063Z,10.55
2022-10-26T07:55:40.065Z,10.62
2022-10-26T07:56:40.989Z,10.65
2022-10-26T07:57:40.046Z,10.68
2022-10-26T07:58:40.016Z,10.70
2022-10-26T07:59:40.083Z,10.73
2022-10-26T08:00:40.047Z,10.76
2022-10-26T08:01:39.973Z,10.81
2022-10-26T08:02:39.952Z,10.84
2022-10-26T08:03:39.964Z,10.86
2022-10-26T08:04:39.943Z,10.88
2022-10-26T08:05:39.997Z,10.91
2022-10-26T08:06:39.906Z,10.94
2022-10-26T08:07:47.040Z,10.99
2022-10-26T08:08:43.537Z,11.03
2022-10-26T08:09:40.890Z,11.05
2022-10-26T08:10:39.856Z,11.08
2022-10-26T08:11:40.539Z,11.12
2022-10-26T08:12:39.875Z,11.16
2022-10-26T08:13:39.887Z,11.17
2022-10-26T08:14:39.888Z,11.20
2022-10-26T08:15:39.809Z,11.21
2022-10-26T08:16:39.779Z,11.26
2022-10-26T08:17:39.774Z,11.28
2022-10-26T08:18:39.775Z,11.35
2022-10-26T08:19:39.775Z,11.36
2022-10-26T08:20:39.754Z,11.39
2022-10-26T08:21:40.603Z,11.41
2022-10-26T08:22:39.722Z,11.45
2022-10-26T08:23:39.688Z,11.51
2022-10-26T08:24:39.697Z,11.56
2022-10-26T08:25:39.717Z,11.59
2022-10-26T08:26:39.670Z,11.63
2022-10-26T08:27:39.644Z,11.67
2022-10-26T08:28:39.651Z,11.69
2022-10-26T08:29:39.650Z,11.74
2022-10-26T08:30:39.620Z,11.77
2022-10-26T08:31:39.604Z,11.81
2022-10-26T08:32:39.583Z,11.84
2022-10-26T08:33:44.034Z,11.87
2022-10-26T08:34:40.572Z,11.90
2022-10-26T08:35:39.534Z,11.93
2022-10-26T08:36:39.555Z,11.96
2022-10-26T08:37:39.564Z,11.98
2022-10-26T08:38:39.575Z,12.01
2022-10-26T08:39:39.526Z,12.04
2022-10-26T08:40:39.510Z,12.07
2022-10-26T08:41:39.470Z,12.12
2022-10-26T08:42:39.456Z,12.13
2022-10-26T08:43:39.568Z,12.15
2022-10-26T08:44:39.457Z,12.16
2022-10-26T08:45:39.440Z,12.21
2022-10-26T08:46:39.428Z,12.22
2022-10-26T08:47:39.381Z,12.25
2022-10-26T08:48:39.388Z,12.29
2022-10-26T08:49:39.359Z,12.33
2022-10-26T08:50:42.047Z,12.36
2022-10-26T08:51:39.325Z,12.38
2022-10-26T08:52:39.338Z,12.40
2022-10-26T08:53:39.332Z,12.43
2022-10-26T08:54:39.300Z,12.44
2022-10-26T08:55:39.315Z,12.48
2022-10-26T08:56:39.262Z,12.51
2022-10-26T08:57:39.282Z,12.56
2022-10-26T08:58:39.314Z,12.58
2022-10-26T08:59:39.302Z,12.62
2022-10-26T09:00:39.321Z,12.67
2022-10-26T09:01:39.286Z,12.71
2022-10-26T09:02:39.205Z,12.76
2022-10-26T09:03:39.187Z,12.79
2022-10-26T09:04:39.199Z,12.84
2022-10-26T09:05:39.159Z,12.85
2022-10-26T09:06:39.257Z,12.91
2022-10-26T09:07:39.170Z,12.92
2022-10-26T09:08:39.125Z,12.96
2022-10-26T09:09:39.133Z,12.98
2022-10-26T09:10:39.090Z,13.03
2022-10-26T09:11:39.083Z,13.06
2022-10-26T09:12:39.078Z,13.09
2022-10-26T09:13:39.098Z,13.10
2022-10-26T09:14:39.537Z,13.13
2022-10-26T09:15:39.065Z,13.17
2022-10-26T09:16:39.052Z,13.22
2022-10-26T09:17:39.028Z,13.25
2022-10-26T09:18:39.048Z,13.28
2022-10-26T09:19:39.006Z,13.31
2022-10-26T09:20:38.975Z,13.32
2022-10-26T09:21:39.123Z,13.36
2022-10-26T09:22:38.936Z,13.38
2022-10-26T09:23:38.916Z,13.44
2022-10-26T09:24:39.006Z,13.46
2022-10-26T09:25:38.903Z,13.48
2022-10-26T09:26:38.892Z,13.53
2022-10-26T09:27:38.894Z,13.57
2022-10-26T09:28:38.869Z,13.57
2022-10-26T09:29:39.079Z,13.61
2022-10-26T09:30:38.844Z,13.63
2022-10-26T09:31:42.383Z,13.66
2022-10-26T09:32:38.836Z,13.68
2022-10-26T09:33:38.835Z,13.73
2022-10-26T09:34:38.792Z,13.73
2022-10-26T09:35:38.786Z,13.76
2022-10-26T09:36:38.973Z,13.81
2022-10-26T09:37:38.746Z,13.84
2022-10-26T09:38:38.751Z,13.88
2022-10-26T09:39:39.047Z,13.90
2022-10-26T09:40:38.718Z,13.90
2022-10-26T09:41:38.694Z,13.93
2022-10-26T09:42:38.705Z,13.98
2022-10-26T09:43:38.765Z,14.01
2022-10-26T09:44:38.668Z,14.04
2022-10-26T09:45:38.668Z,14.08
2022-10-26T09:46:38.653Z,14.12
2022-10-26T09:47:38.614Z,14.16
2022-10-26T09:48:38.636Z,14.20
2022-10-26T09:49:38.617Z,14.24
2022-10-26T09:50:39.445Z,14.27
2022-10-26T09:51:38.580Z,14.27
2022-10-26T09:52:38.574Z,14.34
2022-10-26T09:53:38.601Z,14.38
2022-10-26T09:54:38.561Z,14.39
2022-10-26T09:55:38.526Z,14.44
2022-10-26T09:56:38.491Z,14.46
2022-10-26T09:57:38.613Z,14.48
2022-10-26T09:58:38.472Z,14.53
2022-10-26T09:59:38.476Z,14.54
2022-10-26T10:00:38.465Z,14.59
2022-10-26T10:01:42.173Z,14.61
2022-10-26T10:02:38.496Z,14.64
2022-10-26T10:03:38.415Z,14.66
2022-10-26T10:04:38.554Z,14.69
2022-10-26T10:05:50.698Z,14.69
2022-10-26T10:06:39.431Z,14.72
2022-10-26T10:07:40.114Z,14.75
2022-10-26T10:08:38.395Z,14.78
2022-10-26T10:09:38.355Z,14.80
2022-10-26T10:10:38.338Z,14.85
2022-10-26T10:11:38.325Z,14.86
2022-10-26T10:12:38.322Z,14.90
2022-10-26T10:13:38.290Z,14.93
2022-10-26T10:14:39.827Z,14.97
2022-10-26T10:15:38.248Z,14.98
2022-10-26T10:16:38.240Z,15.00
2022-10-26T10:17:38.245Z,15.01
2022-10-26T10:18:38.213Z,15.05
2022-10-26T10:19:38.241Z,15.09
2022-10-26T10:20:38.182Z,15.13
2022-10-26T10:21:38.210Z,15.15
2022-10-26T10:22:38.181Z,15.16
2022-10-26T10:23:38.149Z,15.19
2022-10-26T10:24:38.207Z,15.20
2022-10-26T10:25:38.139Z,15.22
2022-10-26T10:26:38.124Z,15.19
2022-10-26T10:27:38.107Z,15.20
2022-10-26T10:28:38.079Z,15.27
2022-10-26T10:29:38.197Z,15.27
2022-10-26T10:30:38.072Z,15.27
2022-10-26T10:31:38.110Z,15.30
2022-10-26T10:32:47.886Z,15.31
2022-10-26T10:33:39.024Z,15.35
2022-10-26T10:34:38.007Z,15.38
2022-10-26T10:35:38.021Z,15.41
2022-10-26T10:36:38.064Z,15.44
2022-10-26T10:37:37.965Z,15.48
2022-10-26T10:38:37.948Z,15.49
2022-10-26T10:39:37.924Z,15.51
2022-10-26T10:40:37.924Z,15.53
2022-10-26T10:41:37.906Z,15.55
2022-10-26T10:42:37.901Z,15.58
2022-10-26T10:43:37.894Z,15.58
2022-10-26T10:44:37.923Z,15.59
2022-10-26T10:45:37.897Z,15.62
2022-10-26T10:46:37.875Z,15.66
2022-10-26T10:47:37.932Z,15.68
2022-10-26T10:48:39.456Z,15.68
2022-10-26T10:49:37.837Z,15.71
2022-10-26T10:50:37.810Z,15.73
2022-10-26T10:51:37.803Z,15.77
2022-10-26T10:52:37.867Z,15.77
2022-10-26T10:53:37.765Z,15.78
2022-10-26T10:54:37.789Z,15.80
2022-10-26T10:55:37.908Z,15.85
2022-10-26T10:56:37.744Z,15.86
2022-10-26T10:57:37.714Z,15.88
2022-10-26T10:58:37.681Z,15.91
2022-10-26T10:59:37.709Z,15.93
2022-10-26T11:00:37.969Z,15.95
2022-10-26T11:01:37.769Z,15.96
2022-10-26T11:02:37.829Z,15.99
2022-10-26T11:03:37.646Z,15.98
2022-10-26T11:04:37.659Z,16.01
2022-10-26T11:05:37.665Z,16.06
2022-10-26T11:06:37.603Z,16.06
2022-10-26T11:07:37.619Z,16.08
2022-10-26T11:08:37.583Z,16.11
2022-10-26T11:09:37.573Z,16.16
2022-10-26T11:10:37.598Z,16.17
2022-10-26T11:11:40.613Z,16.17
2022-10-26T11:12:38.514Z,16.18
2022-10-26T11:13:37.500Z,16.18
2022-10-26T11:14:37.504Z,16.18
2022-10-26T11:15:37.549Z,16.22
2022-10-26T11:16:37.475Z,16.22
2022-10-26T11:17:38.619Z,16.22
2022-10-26T11:18:37.453Z,16.22
2022-10-26T11:19:37.432Z,16.25
2022-10-26T11:20:37.484Z,16.27
2022-10-26T11:21:37.408Z,16.25
2022-10-26T11:22:37.421Z,16.26
2022-10-26T11:23:37.482Z,16.30
2022-10-26T11:24:37.361Z,16.32
2022-10-26T11:25:37.367Z,16.32
2022-10-26T11:26:38.673Z,16.32
2022-10-26T11:27:37.310Z,16.34
2022-10-26T11:28:37.313Z,16.34
2022-10-26T11:29:39.414Z,16.40
2022-10-26T11:30:37.314Z,16.42
2022-10-26T11:31:37.329Z,16.44
2022-10-26T11:32:37.272Z,16.45
2022-10-26T11:33:37.240Z,16.45
2022-10-26T11:34:37.233Z,16.48
2022-10-26T11:35:37.237Z,16.50
2022-10-26T11:36:37.211Z,16.50
2022-10-26T11:37:37.214Z,16.50
2022-10-26T11:38:52.873Z,16.51
2022-10-26T11:39:38.188Z,16.54
2022-10-26T11:40:37.274Z,16.55
2022-10-26T11:41:37.150Z,16.57
2022-10-26T11:42:37.141Z,16.59
2022-10-26T11:43:37.364Z,16.60
2022-10-26T11:44:37.119Z,16.60
2022-10-26T11:45:37.228Z,16.63
2022-10-26T11:46:37.129Z,16.63
2022-10-26T11:47:37.832Z,16.65
2022-10-26T11:48:37.051Z,16.67
2022-10-26T11:49:37.032Z,16.72
2022-10-26T11:50:37.035Z,16.75
2022-10-26T11:51:37.018Z,16.77
2022-10-26T11:52:37.003Z,16.81
2022-10-26T11:53:36.997Z,16.85
2022-10-26T11:54:37.025Z,16.87
2022-10-26T11:55:36.988Z,16.88
2022-10-26T11:56:36.996Z,16.88
2022-10-26T11:57:36.963Z,16.90
2022-10-26T11:58:36.974Z,16.91
2022-10-26T11:59:36.903Z,16.95
2022-10-26T12:00:37.128Z,16.96
2022-10-26T12:01:36.926Z,16.95
2022-10-26T12:02:37.008Z,16.96
2022-10-26T12:03:36.873Z,16.98
2022-10-26T12:04:36.845Z,16.98
2022-10-26T12:05:36.894Z,17.00
2022-10-26T12:06:36.871Z,17.02
2022-10-26T12:07:36.833Z,17.02
2022-10-26T12:08:36.858Z,17.05
2022-10-26T12:09:36.776Z,17.03
2022-10-26T12:10:36.786Z,17.03
2022-10-26T12:11:36.776Z,17.06
2022-10-26T12:12:37.508Z,17.06
2022-10-26T12:13:36.719Z,17.07
2022-10-26T12:14:36.775Z,17.07
2022-10-26T12:16:01.843Z,17.07
2022-10-26T12:16:37.748Z,17.09
2022-10-26T12:17:36.689Z,17.10
2022-10-26T12:18:54.502Z,17.17
2022-10-26T12:19:37.639Z,17.18
2022-10-26T12:20:36.898Z,17.21
2022-10-26T12:21:36.696Z,17.22
2022-10-26T12:22:36.726Z,17.21
2022-10-26T12:23:40.998Z,17.20
2022-10-26T12:24:37.646Z,17.20
2022-10-26T12:25:36.594Z,17.18
2022-10-26T12:26:36.623Z,17.20
2022-10-26T12:27:36.696Z,17.18
2022-10-26T12:28:36.582Z,17.22
2022-10-26T12:29:36.526Z,17.27
2022-10-26T12:30:36.566Z,17.28
2022-10-26T12:31:36.499Z,17.30
2022-10-26T12:32:39.170Z,17.25
2022-10-26T12:33:37.459Z,17.28
2022-10-26T12:34:36.462Z,17.30
2022-10-26T12:35:36.478Z,17.27
2022-10-26T12:36:36.440Z,17.28
2022-10-26T12:37:37.310Z,17.27
2022-10-26T12:38:36.401Z,17.28
2022-10-26T12:39:36.373Z,17.28
2022-10-26T12:40:36.398Z,17.32
2022-10-26T12:41:36.913Z,17.33
2022-10-26T12:42:36.352Z,17.33
2022-10-26T12:43:36.438Z,17.36
2022-10-26T12:44:36.340Z,17.35
2022-10-26T12:45:36.325Z,17.38
2022-10-26T12:46:36.366Z,17.38
2022-10-26T12:47:36.294Z,17.39
2022-10-26T12:48:39.379Z,17.39
2022-10-26T12:49:36.237Z,17.39
2022-10-26T12:50:36.284Z,17.39
2022-10-26T12:51:39.684Z,17.36
2022-10-26T12:52:36.388Z,17.38
2022-10-26T12:53:36.251Z,17.38
2022-10-26T12:54:36.187Z,17.40
2022-10-26T12:55:37.602Z,17.46
2022-10-26T12:56:36.165Z,17.46
2022-10-26T12:57:36.202Z,17.45
2022-10-26T12:58:36.137Z,17.45
2022-10-26T12:59:36.140Z,17.46
2022-10-26T13:01:36.221Z,17.45
2022-10-26T13:02:36.091Z,17.49
2022-10-26T13:03:37.016Z,17.53
2022-10-26T13:04:36.073Z,17.49
2022-10-26T13:05:36.108Z,17.49
2022-10-26T13:06:36.050Z,17.47